createdAt,value
2019-02-16T00:00:49.479Z,66.8
2019-02-16T00:01:42.028Z,67.19
2019-02-16T00:02:34.510Z,67.28
2019-02-16T00:03:27.248Z,67.57
2019-02-16T00:04:19.706Z,67.47
2019-02-16T00:05:12.231Z,67.66
2019-02-16T00:06:04.548Z,67.85
2019-02-16T00:06:57.486Z,67.85
2019-02-16T00:07:49.841Z,68.04
2019-02-16T00:08:41.613Z,67.57
2019-02-16T00:09:33.981Z,67.94
2019-02-16T00:10:26.189Z,67.85
2019-02-16T00:11:18.286Z,67.66
2019-02-16T00:12:10.064Z,67.94
2019-02-16T00:13:02.052Z,67.82
2019-02-16T00:13:54.202Z,67.72
2019-02-16T00:14:46.555Z,67.82
2019-02-16T00:15:38.598Z,67.91
2019-02-16T00:16:30.589Z,68.67
2019-02-16T00:17:22.904Z,68.48
2019-02-16T00:18:15.892Z,68.39
2019-02-16T00:19:09.648Z,68.77
2019-02-16T00:20:01.426Z,68.48
2019-02-16T00:20:53.633Z,68.86
2019-02-16T00:21:45.686Z,68.67
2019-02-16T00:22:38.101Z,69.05
2019-02-16T00:23:30.189Z,69.34
2019-02-16T00:24:22.441Z,69.05
2019-02-16T00:25:14.638Z,69.34
2019-02-16T00:26:06.458Z,69.24
2019-02-16T00:26:58.995Z,69.62
2019-02-16T00:27:50.896Z,69.53
2019-02-16T00:28:42.913Z,69.15
2019-02-16T00:29:34.423Z,69.34
2019-02-16T00:30:27.921Z,69.43
2019-02-16T00:31:20.331Z,69.24
2019-02-16T00:32:13.048Z,69.24
2019-02-16T00:33:05.043Z,68.67
2019-02-16T00:33:57.662Z,69.15
2019-02-16T00:34:49.857Z,68.39
2019-02-16T00:35:34.491Z,68.77
2019-02-16T00:36:14.937Z,68.86
2019-02-16T00:36:55.539Z,68.86
2019-02-16T00:37:35.818Z,69.24
2019-02-16T00:38:16.155Z,69.34
2019-02-16T00:38:56.572Z,69.34
2019-02-16T00:39:46.332Z,69.05
2019-02-16T00:40:26.574Z,69.15
2019-02-16T00:41:06.984Z,69.34
2019-02-16T00:41:47.446Z,69.15
2019-02-16T00:42:27.809Z,69.81
2019-02-16T00:43:08.670Z,69.43
2019-02-16T00:43:49.036Z,70.19
2019-02-16T00:44:30.259Z,70
2019-02-16T00:45:09.941Z,69.62
2019-02-16T00:45:50.406Z,69.62
2019-02-16T00:46:30.822Z,69.71
2019-02-16T00:47:11.322Z,69.24
2019-02-16T00:47:51.709Z,69.24
2019-02-16T00:48:32.178Z,69.15
2019-02-16T00:49:12.550Z,69.34
2019-02-16T00:49:52.962Z,70.1
2019-02-16T00:50:33.415Z,69.05
2019-02-16T00:51:14.182Z,69.24
2019-02-16T00:51:54.403Z,69.24
2019-02-16T00:52:35.126Z,69.71
2019-02-16T00:53:15.624Z,70
2019-02-16T00:53:56.001Z,69.81
2019-02-16T00:54:36.378Z,69.34
2019-02-16T00:55:16.898Z,69.24
2019-02-16T00:55:57.327Z,69.15
2019-02-16T00:56:37.900Z,69.24
2019-02-16T00:57:18.410Z,70
2019-02-16T00:57:59.142Z,70.29
2019-02-16T00:58:39.346Z,70.1
2019-02-16T00:59:19.745Z,70
2019-02-16T01:00:00.273Z,70.29
2019-02-16T01:00:40.523Z,70
2019-02-16T01:01:21.035Z,70.1
2019-02-16T01:02:01.526Z,70.19
2019-02-16T01:02:42.035Z,70.29
2019-02-16T01:03:22.448Z,69.71
2019-02-16T01:04:03.089Z,70.19
2019-02-16T01:04:43.799Z,70
2019-02-16T01:05:24.192Z,70.48
2019-02-16T01:06:04.904Z,70.48
2019-02-16T01:06:45.364Z,70.86
2019-02-16T01:07:25.823Z,70
2019-02-16T01:08:06.087Z,70.19
2019-02-16T01:08:46.549Z,70.19
2019-02-16T01:09:27.046Z,70.19
2019-02-16T01:10:07.447Z,70.1
2019-02-16T01:10:48.090Z,70.1
2019-02-16T01:11:28.467Z,70.48
2019-02-16T01:12:08.789Z,70.86
2019-02-16T01:12:49.277Z,70.67
2019-02-16T01:13:29.657Z,70.67
2019-02-16T01:14:09.998Z,70.19
2019-02-16T01:14:50.457Z,69.62
2019-02-16T01:15:30.843Z,69.62
2019-02-16T01:16:11.286Z,70.29
2019-02-16T01:16:51.628Z,70.19
2019-02-16T01:17:32.088Z,70
2019-02-16T01:18:13.078Z,70
2019-02-16T01:18:53.503Z,70
2019-02-16T01:19:33.931Z,70
2019-02-16T01:20:14.312Z,70
2019-02-16T01:20:55.136Z,70.76
2019-02-16T01:21:35.547Z,71.52
2019-02-16T01:22:15.993Z,70.95
2019-02-16T01:22:56.413Z,70.1
2019-02-16T01:23:36.848Z,69.71
2019-02-16T01:24:17.168Z,70.1
2019-02-16T01:24:57.527Z,69.91
2019-02-16T01:25:38.030Z,70.95
2019-02-16T01:26:18.440Z,70.76
2019-02-16T01:26:58.947Z,70.67
2019-02-16T01:27:39.480Z,70.57
2019-02-16T01:28:19.775Z,70.76
2019-02-16T01:29:00.595Z,71.52
2019-02-16T01:29:40.911Z,71.33
2019-02-16T01:30:21.536Z,71.52
2019-02-16T01:31:01.962Z,72
2019-02-16T01:31:42.353Z,71.23
2019-02-16T01:32:22.876Z,70.95
2019-02-16T01:33:03.333Z,70.95
2019-02-16T01:33:45.488Z,71.11
2019-02-16T01:34:24.264Z,71.48
2019-02-16T01:35:04.755Z,71.58
2019-02-16T01:35:45.396Z,72.25
2019-02-16T01:36:25.667Z,72.15
2019-02-16T01:37:06.417Z,72.63
2019-02-16T01:37:47.617Z,72.06
2019-02-16T01:38:27.645Z,72.34
2019-02-16T01:39:08.274Z,72.15
2019-02-16T01:39:48.614Z,72.15
2019-02-16T01:40:29.331Z,71.77
2019-02-16T01:41:09.565Z,71.3
2019-02-16T01:41:50.355Z,71.58
2019-02-16T01:42:30.749Z,71.58
2019-02-16T01:43:11.181Z,71.86
2019-02-16T01:43:51.604Z,72.25
2019-02-16T01:44:32.084Z,72.63
2019-02-16T01:45:12.510Z,72.91
2019-02-16T01:45:52.779Z,72.44
2019-02-16T01:46:33.493Z,72.25
2019-02-16T01:47:13.882Z,71.48
2019-02-16T01:47:54.350Z,72.06
2019-02-16T01:48:34.741Z,71.96
2019-02-16T01:49:15.343Z,71.48
2019-02-16T01:49:55.790Z,71.86
2019-02-16T01:50:36.165Z,72.06
2019-02-16T01:51:16.680Z,71.48
2019-02-16T01:51:57.383Z,71.48
2019-02-16T01:52:37.682Z,71.67
2019-02-16T01:53:18.159Z,72.06
2019-02-16T01:53:58.544Z,72.06
2019-02-16T01:54:38.998Z,71.39
2019-02-16T01:55:19.185Z,71.58
2019-02-16T01:55:59.621Z,71.96
2019-02-16T01:56:40.243Z,71.67
2019-02-16T01:57:20.751Z,71.67
2019-02-16T01:58:01.235Z,71.48
2019-02-16T01:58:41.600Z,71.77
2019-02-16T01:59:21.934Z,71.3
2019-02-16T02:00:02.511Z,71.3
2019-02-16T02:00:42.912Z,71.2
2019-02-16T02:01:23.330Z,71.39
2019-02-16T02:02:03.975Z,71.2
2019-02-16T02:02:44.345Z,71.48
2019-02-16T02:03:24.708Z,71.86
2019-02-16T02:04:05.047Z,72.06
2019-02-16T02:04:45.441Z,72.15
2019-02-16T02:05:26.039Z,72.06
2019-02-16T02:06:06.470Z,72.06
2019-02-16T02:06:46.716Z,72.63
2019-02-16T02:07:27.302Z,72.72
2019-02-16T02:08:08.464Z,72.44
2019-02-16T02:08:49.171Z,72.63
2019-02-16T02:09:29.643Z,72.25
2019-02-16T02:10:09.963Z,72.44
2019-02-16T02:10:50.349Z,72.53
2019-02-16T02:11:30.792Z,73.29
2019-02-16T02:12:11.117Z,73.1
2019-02-16T02:12:51.704Z,72.72
2019-02-16T02:13:32.339Z,72.34
2019-02-16T02:14:12.791Z,72.72
2019-02-16T02:14:53.021Z,72.81
2019-02-16T02:15:33.579Z,72.81
2019-02-16T02:16:13.932Z,72.34
2019-02-16T02:16:54.539Z,72.91
2019-02-16T02:17:35.058Z,72.81
2019-02-16T02:18:15.533Z,73.29
2019-02-16T02:18:56.008Z,73.1
2019-02-16T02:19:36.347Z,73.1
2019-02-16T02:20:16.902Z,73.29
2019-02-16T02:20:57.408Z,73
2019-02-16T02:21:41.080Z,73
2019-02-16T02:22:18.371Z,72.91
2019-02-16T02:22:58.711Z,72.91
2019-02-16T02:23:39.297Z,72.53
2019-02-16T02:24:19.584Z,72.44
2019-02-16T02:25:00.051Z,72.25
2019-02-16T02:25:40.410Z,72.72
2019-02-16T02:26:20.904Z,72.53
2019-02-16T02:27:01.330Z,72.25
2019-02-16T02:27:41.753Z,72.34
2019-02-16T02:28:22.546Z,72.15
2019-02-16T02:29:03.186Z,72.72
2019-02-16T02:29:43.449Z,73.29
2019-02-16T02:30:23.866Z,73.1
2019-02-16T02:31:04.993Z,72.81
2019-02-16T02:31:45.104Z,72.91
2019-02-16T02:32:25.730Z,72.91
2019-02-16T02:33:06.580Z,72.53
2019-02-16T02:33:46.570Z,72.44
2019-02-16T02:34:27.047Z,72.53
2019-02-16T02:35:08.251Z,72.91
2019-02-16T02:35:48.935Z,73.1
2019-02-16T02:36:29.297Z,73
2019-02-16T02:37:09.674Z,73.19
2019-02-16T02:37:50.204Z,73.19
2019-02-16T02:38:30.606Z,72.81
2019-02-16T02:39:10.902Z,72.63
2019-02-16T02:39:51.557Z,72.34
2019-02-16T02:40:31.786Z,73.29
2019-02-16T02:41:12.150Z,73.48
2019-02-16T02:41:52.550Z,73.19
2019-02-16T02:42:32.930Z,72.81
2019-02-16T02:43:13.362Z,73
2019-02-16T02:43:53.753Z,73
2019-02-16T02:44:34.438Z,73.14
2019-02-16T02:45:14.912Z,72.28
2019-02-16T02:45:55.321Z,72.85
2019-02-16T02:46:36.906Z,72.75
2019-02-16T02:47:17.365Z,71.52
2019-02-16T02:47:57.649Z,72
2019-02-16T02:48:38.061Z,71.67
2019-02-16T02:49:18.684Z,71.48
2019-02-16T02:49:59.023Z,72.44
2019-02-16T02:50:39.549Z,71.86
2019-02-16T02:51:19.851Z,72.25
2019-02-16T02:52:00.426Z,72.44
2019-02-16T02:52:40.826Z,72.15
2019-02-16T02:53:30.609Z,72.91
2019-02-16T02:54:01.961Z,72.91
2019-02-16T02:54:42.324Z,73.1
2019-02-16T02:55:22.754Z,73.1
2019-02-16T02:56:03.263Z,72.91
2019-02-16T02:56:43.758Z,73.29
2019-02-16T02:57:24.240Z,73.38
2019-02-16T02:58:04.594Z,73.29
2019-02-16T02:58:45.063Z,73.76
2019-02-16T02:59:25.399Z,73.67
2019-02-16T03:00:05.948Z,73.48
2019-02-16T03:00:46.335Z,73.67
2019-02-16T03:01:26.671Z,73.57
2019-02-16T03:02:07.125Z,73.76
2019-02-16T03:02:47.776Z,74.05
2019-02-16T03:03:28.163Z,73.71
2019-02-16T03:04:08.466Z,73.9
2019-02-16T03:04:49.008Z,73.04
2019-02-16T03:05:29.496Z,73.04
2019-02-16T03:06:09.899Z,73.04
2019-02-16T03:06:50.234Z,73.04
2019-02-16T03:07:30.667Z,73.04
2019-02-16T03:08:11.173Z,73.04
2019-02-16T03:08:51.535Z,72.66
2019-02-16T03:09:32.044Z,72.95
2019-02-16T03:10:12.481Z,72.47
2019-02-16T03:10:53.021Z,72.47
2019-02-16T03:11:33.258Z,72.56
2019-02-16T03:12:13.718Z,72.28
2019-02-16T03:12:54.204Z,71.62
2019-02-16T03:13:34.545Z,71.62
2019-02-16T03:14:15.005Z,72
2019-02-16T03:14:55.396Z,72.19
2019-02-16T03:15:35.786Z,72.19
2019-02-16T03:16:16.127Z,72.66
2019-02-16T03:16:56.530Z,73.04
2019-02-16T03:17:36.948Z,72.44
2019-02-16T03:18:17.274Z,73.42
2019-02-16T03:18:57.609Z,73.19
2019-02-16T03:19:37.999Z,73.76
2019-02-16T03:20:18.522Z,72.95
2019-02-16T03:20:58.923Z,73.42
2019-02-16T03:21:39.313Z,73.04
2019-02-16T03:22:19.674Z,73.23
2019-02-16T03:23:00.129Z,73.04
2019-02-16T03:23:40.554Z,73.42
2019-02-16T03:24:20.875Z,73.52
2019-02-16T03:25:01.286Z,73.23
2019-02-16T03:25:41.742Z,72.95
2019-02-16T03:26:22.119Z,73.14
2019-02-16T03:27:02.487Z,73.42
2019-02-16T03:27:42.873Z,72.95
2019-02-16T03:28:23.362Z,73.42
2019-02-16T03:29:03.763Z,73.04
2019-02-16T03:29:44.174Z,73.23
2019-02-16T03:30:24.634Z,73.04
2019-02-16T03:31:04.962Z,73.23
2019-02-16T03:31:45.294Z,72.66
2019-02-16T03:32:25.803Z,73.19
2019-02-16T03:33:06.252Z,73.38
2019-02-16T03:33:46.603Z,73.67
2019-02-16T03:34:27.065Z,73
2019-02-16T03:35:07.364Z,73
2019-02-16T03:35:48.089Z,72.72
2019-02-16T03:36:28.193Z,73
2019-02-16T03:37:08.571Z,73.1
2019-02-16T03:37:49.015Z,73.38
2019-02-16T03:38:29.392Z,74.24
2019-02-16T03:39:09.852Z,74.05
2019-02-16T03:39:50.158Z,73.76
2019-02-16T03:40:30.578Z,73.38
2019-02-16T03:41:10.936Z,73.1
2019-02-16T03:41:51.235Z,72.81
2019-02-16T03:42:31.779Z,73.76
2019-02-16T03:43:12.266Z,74.15
2019-02-16T03:43:52.592Z,73.96
2019-02-16T03:44:33.009Z,74.15
2019-02-16T03:45:13.395Z,74.71
2019-02-16T03:45:53.782Z,73.86
2019-02-16T03:46:34.253Z,73.76
2019-02-16T03:47:14.748Z,74.24
2019-02-16T03:47:55.110Z,74.71
2019-02-16T03:48:35.566Z,74.71
2019-02-16T03:49:16.016Z,73.76
2019-02-16T03:49:56.566Z,73.57
2019-02-16T03:50:36.874Z,73.48
2019-02-16T03:51:17.432Z,73.29
2019-02-16T03:51:57.799Z,73.38
2019-02-16T03:52:38.195Z,73.29
2019-02-16T03:53:18.541Z,72.81
2019-02-16T03:53:58.942Z,73
2019-02-16T03:54:39.373Z,72.91
2019-02-16T03:55:19.706Z,73.19
2019-02-16T03:56:00.116Z,73.38
2019-02-16T03:56:40.470Z,73.1
2019-02-16T03:57:20.938Z,73.48
2019-02-16T03:58:01.400Z,73.19
2019-02-16T03:58:41.830Z,74.05
2019-02-16T03:59:22.152Z,74.15
2019-02-16T04:00:02.590Z,73.76
2019-02-16T04:00:42.966Z,74.24
2019-02-16T04:01:23.396Z,74.05
2019-02-16T04:02:03.805Z,74.81
2019-02-16T04:02:44.109Z,74.9
2019-02-16T04:03:24.599Z,74.81
2019-02-16T04:04:05.035Z,74.81
2019-02-16T04:04:45.445Z,75.09
2019-02-16T04:05:25.901Z,75.76
2019-02-16T04:06:06.255Z,74.9
2019-02-16T04:06:46.540Z,75.19
2019-02-16T04:07:26.933Z,74.81
2019-02-16T04:08:07.499Z,75.09
2019-02-16T04:08:47.852Z,74.05
2019-02-16T04:09:28.305Z,73.67
2019-02-16T04:10:08.607Z,73.67
2019-02-16T04:10:48.978Z,73.67
2019-02-16T04:11:29.450Z,74.24
2019-02-16T04:12:09.877Z,74.62
2019-02-16T04:12:50.396Z,74.15
2019-02-16T04:13:30.786Z,73.96
2019-02-16T04:14:11.143Z,73.76
2019-02-16T04:14:51.571Z,74.24
2019-02-16T04:15:31.976Z,74.33
2019-02-16T04:16:12.733Z,74.71
2019-02-16T04:16:53.142Z,75.28
2019-02-16T04:17:33.561Z,75
2019-02-16T04:18:14.006Z,75.67
2019-02-16T04:18:54.349Z,75.57
2019-02-16T04:19:34.892Z,76.04
2019-02-16T04:20:15.266Z,75.85
2019-02-16T04:20:55.778Z,75.57
2019-02-16T04:21:36.007Z,75.76
2019-02-16T04:22:24.115Z,74.71
2019-02-16T04:22:56.849Z,74.9
2019-02-16T04:23:37.243Z,74.62
2019-02-16T04:24:17.736Z,75.72
2019-02-16T04:24:58.079Z,76.32
2019-02-16T04:25:38.566Z,76.71
2019-02-16T04:26:19.003Z,76.04
2019-02-16T04:26:59.450Z,76.04
2019-02-16T04:27:39.812Z,75.76
2019-02-16T04:28:20.239Z,75.09
2019-02-16T05:05:59.595Z,84.03
2019-02-16T05:06:49.439Z,84.12
2019-02-16T05:07:42.070Z,83.8
2019-02-16T05:08:34.225Z,84.17
2019-02-16T05:09:26.689Z,84.74
2019-02-16T05:10:19.798Z,85.78
2019-02-16T05:11:11.671Z,86.07
2019-02-16T05:12:03.373Z,86.3
2019-02-16T05:12:55.403Z,86.4
2019-02-16T05:13:47.520Z,85.93
2019-02-16T05:14:39.954Z,84.98
2019-02-16T05:15:31.955Z,84.78
2019-02-16T05:16:24.654Z,85.64
2019-02-16T05:17:16.825Z,84.31
2019-02-16T05:18:08.986Z,83.84
2019-02-16T05:19:01.061Z,83.74
2019-02-16T05:19:53.653Z,84.03
2019-02-16T05:20:46.088Z,82.89
2019-02-16T05:21:38.247Z,82.04
2019-02-16T05:22:30.262Z,82.6
2019-02-16T05:23:23.313Z,81.51
2019-02-16T05:24:15.754Z,81.41
2019-02-16T05:25:07.690Z,81.13
2019-02-16T05:26:00.156Z,80.04
2019-02-16T05:26:51.953Z,79.66
2019-02-16T05:27:44.161Z,80.99
2019-02-16T05:28:36.744Z,81.18
2019-02-16T05:29:29.298Z,81.47
2019-02-16T05:30:21.519Z,81.94
2019-02-16T05:31:13.620Z,81.37
2019-02-16T05:32:05.776Z,81.47
2019-02-16T05:32:57.914Z,80.65
2019-02-16T05:33:50.035Z,80.14
2019-02-16T05:34:42.340Z,80.27
2019-02-16T05:35:34.691Z,80.71
2019-02-16T05:36:26.554Z,80.94
2019-02-16T05:37:18.889Z,81.13
2019-02-16T05:38:10.992Z,81.6
2019-02-16T05:39:03.576Z,79.99
2019-02-16T05:39:56.326Z,79.9
2019-02-16T05:40:48.490Z,80.37
2019-02-16T05:41:41.208Z,80.18
2019-02-16T05:42:33.481Z,80.56
2019-02-16T05:43:26.128Z,80.18
2019-02-16T05:44:18.013Z,79.9
2019-02-16T05:45:10.660Z,79.23
2019-02-16T05:46:02.819Z,79.04
2019-02-16T05:46:55.012Z,78.95
2019-02-16T05:47:47.045Z,78.56
2019-02-16T05:48:37.888Z,79.42
2019-02-16T05:50:45.577Z,79.71
2019-02-16T05:51:38.189Z,78.75
2019-02-16T05:52:31.717Z,79.04
2019-02-16T05:53:23.828Z,78.75
2019-02-16T05:54:16.127Z,79.04
2019-02-16T05:55:08.572Z,78.47
2019-02-16T05:56:01.015Z,78.38
2019-02-16T05:56:53.499Z,78.56
2019-02-16T05:57:45.954Z,78.28
2019-02-16T05:58:38.617Z,78.66
2019-02-16T05:59:31.031Z,78.28
2019-02-16T06:00:23.489Z,77.81
2019-02-16T06:01:15.901Z,79.04
2019-02-16T06:02:08.528Z,79.42
2019-02-16T06:03:00.969Z,79.14
2019-02-16T06:03:53.711Z,78.85
2019-02-16T06:04:47.116Z,79.33
2019-02-16T06:05:40.797Z,78.19
2019-02-16T06:06:31.205Z,78.56
2019-02-16T06:07:23.292Z,78.56
2019-02-16T06:08:15.506Z,77.52
2019-02-16T06:09:07.913Z,77.81
2019-02-16T06:10:00.520Z,77.9
2019-02-16T06:10:52.422Z,77.71
2019-02-16T06:11:44.986Z,78
2019-02-16T06:12:37.140Z,78.56
2019-02-16T06:13:29.568Z,79.52
2019-02-16T06:14:22.396Z,78.95
2019-02-16T06:15:14.879Z,78.75
2019-02-16T06:16:07.462Z,79.04
2019-02-16T06:16:59.925Z,78.75
2019-02-16T06:17:52.759Z,78.28
2019-02-16T06:18:45.387Z,78.56
2019-02-16T06:19:37.983Z,78.47
2019-02-16T06:20:30.940Z,78.19
2019-02-16T06:21:23.411Z,77.9
2019-02-16T06:22:15.898Z,77.81
2019-02-16T06:23:08.689Z,78.28
2019-02-16T06:24:00.906Z,78.28
2019-02-16T06:24:53.475Z,78
2019-02-16T06:25:45.997Z,77.81
2019-02-16T06:26:38.368Z,78.75
2019-02-16T06:27:30.947Z,77.9
2019-02-16T06:28:23.569Z,78.19
2019-02-16T06:29:15.878Z,78.28
2019-02-16T06:30:07.883Z,77.24
2019-02-16T06:30:59.696Z,76.95
2019-02-16T06:31:52.123Z,77.43
2019-02-16T06:34:25.302Z,77.24
2019-02-16T06:35:17.785Z,77.24
2019-02-16T06:36:10.268Z,76.95
2019-02-16T06:37:02.685Z,77.33
2019-02-16T06:37:54.916Z,76.76
2019-02-16T06:38:46.928Z,76.57
2019-02-16T06:39:39.334Z,77.14
2019-02-16T06:40:31.610Z,76.57
2019-02-16T06:41:23.705Z,76.86
2019-02-16T06:42:16.114Z,76.76
2019-02-16T06:43:08.110Z,78.09
2019-02-16T06:43:59.956Z,77.33
2019-02-16T06:44:52.205Z,77.71
2019-02-16T06:45:44.632Z,77.81
2019-02-16T06:46:36.775Z,77.71
2019-02-16T06:47:28.994Z,77.14
2019-02-16T06:48:21.120Z,77.81
2019-02-16T06:49:13.243Z,77.9
2019-02-16T06:50:06.398Z,77.33
2019-02-16T06:50:58.623Z,77.62
2019-02-16T06:51:50.823Z,78.09
2019-02-16T06:52:42.768Z,79.14
2019-02-16T06:53:34.743Z,78.95
2019-02-16T06:54:27.057Z,79.42
2019-02-16T06:55:19.157Z,78.66
2019-02-16T06:56:11.333Z,77.62
2019-02-16T06:57:03.433Z,78.95
2019-02-16T06:57:55.536Z,77.71
2019-02-16T06:58:47.850Z,78
2019-02-16T06:59:40.615Z,77.05
2019-02-16T07:00:32.477Z,76.61
2019-02-16T07:01:24.138Z,76.39
2019-02-16T07:02:16.725Z,76.99
2019-02-16T07:03:04.478Z,77.09
2019-02-16T07:03:45.067Z,75.95
2019-02-16T07:04:25.462Z,75
2019-02-16T07:05:06.153Z,74.9
2019-02-16T07:05:47.319Z,74.9
2019-02-16T07:06:27.826Z,75.85
2019-02-16T07:07:08.562Z,75
2019-02-16T07:07:49.175Z,74.81
2019-02-16T07:08:30.029Z,74.62
2019-02-16T07:09:10.733Z,74.81
2019-02-16T07:09:51.887Z,74.62
2019-02-16T07:10:32.357Z,74.71
2019-02-16T07:11:12.747Z,74.81
2019-02-16T07:11:53.299Z,74.05
2019-02-16T07:12:33.679Z,74.05
2019-02-16T07:13:14.157Z,73.71
2019-02-16T07:13:54.524Z,73.71
2019-02-16T07:14:35.203Z,73.52
2019-02-16T07:15:15.887Z,72.66
2019-02-16T07:15:56.298Z,71.94
2019-02-16T07:16:36.647Z,71.56
2019-02-16T07:17:17.474Z,70.23
2019-02-16T07:17:57.938Z,69.85
2019-02-16T07:18:38.563Z,69.46
2019-02-16T07:19:18.953Z,69.56
2019-02-16T07:19:59.460Z,69.27
2019-02-16T07:20:40.149Z,69.09
2019-02-16T07:21:20.623Z,68.9
2019-02-16T07:22:01.314Z,69.37
2019-02-16T07:22:42.671Z,69.85
2019-02-16T07:23:23.443Z,70.13
2019-02-16T07:24:03.963Z,70.32
2019-02-16T07:24:45.189Z,70.61
2019-02-16T07:25:25.489Z,70.42
2019-02-16T07:26:06.577Z,70.04
2019-02-16T07:26:47.307Z,70.23
2019-02-16T07:27:27.878Z,69.75
2019-02-16T07:28:08.353Z,69.66
2019-02-16T07:28:48.850Z,69.66
2019-02-16T07:29:29.250Z,69.66
2019-02-16T07:30:09.761Z,69.27
2019-02-16T07:30:50.242Z,69.27
2019-02-16T07:31:30.773Z,68.36
2019-02-16T07:32:11.245Z,68.17
2019-02-16T07:32:51.558Z,67.79
2019-02-16T07:33:32.261Z,67.5
2019-02-16T07:34:12.735Z,66.49
2019-02-16T07:34:53.211Z,65.45
2019-02-16T07:35:33.653Z,64.87
2019-02-16T07:36:14.083Z,65.19
2019-02-16T07:36:54.560Z,63.96
2019-02-16T07:37:34.943Z,63.1
2019-02-16T07:38:15.352Z,62.81
2019-02-16T07:38:55.746Z,62.46
2019-02-16T07:39:36.245Z,61.51
2019-02-16T07:40:16.650Z,60.94
2019-02-16T07:40:57.094Z,60.66
2019-02-16T07:41:37.641Z,59.89
2019-02-16T07:42:18.107Z,59.61
2019-02-16T07:42:58.516Z,58.97
2019-02-16T07:43:38.911Z,58.78
2019-02-16T07:44:19.667Z,58.4
2019-02-16T07:45:00.359Z,58.02
2019-02-16T07:45:40.438Z,57.54
2019-02-16T07:46:20.922Z,57.45
2019-02-16T07:47:01.289Z,57.48
2019-02-16T07:47:41.824Z,57.19
2019-02-16T07:48:22.165Z,56.71
2019-02-16T07:49:02.806Z,56.14
2019-02-16T07:49:43.364Z,55.76
2019-02-16T07:50:23.797Z,54.93
2019-02-16T07:51:04.355Z,54.83
2019-02-16T07:51:44.801Z,54.17
2019-02-16T07:52:25.333Z,54.74
2019-02-16T07:53:05.995Z,53.91
2019-02-16T07:53:46.667Z,53.24
2019-02-16T07:54:26.998Z,53.62
2019-02-16T07:55:07.433Z,53.81
2019-02-16T07:55:47.950Z,53.05
2019-02-16T07:56:28.845Z,52.38
2019-02-16T07:57:09.248Z,51.71
2019-02-16T07:57:50.013Z,51.71
2019-02-16T07:58:30.455Z,51.71
2019-02-16T07:59:11.152Z,51.9
2019-02-16T07:59:51.559Z,51.74
2019-02-16T08:00:31.875Z,51.83
2019-02-16T08:01:12.661Z,51.64
2019-02-16T08:01:53.169Z,51.64
2019-02-16T08:02:34.115Z,50.88
2019-02-16T08:03:14.554Z,50.69
2019-02-16T08:03:55.326Z,50.49
2019-02-16T08:04:36.273Z,50.49
2019-02-16T08:05:16.930Z,50.69
2019-02-16T08:05:57.125Z,50.69
2019-02-16T08:06:38.006Z,51.17
2019-02-16T08:07:18.627Z,50.31
2019-02-16T08:07:59.329Z,50.4
2019-02-16T08:08:39.837Z,50.49
2019-02-16T08:09:20.309Z,50.24
2019-02-16T08:10:00.632Z,50.04
2019-02-16T08:10:41.216Z,49.47
2019-02-16T08:11:21.434Z,49.49
2019-02-16T08:12:02.187Z,48.73
2019-02-16T08:12:42.659Z,48.25
2019-02-16T08:13:22.929Z,47.87
2019-02-16T08:14:03.598Z,47.58
2019-02-16T08:14:44.041Z,47.01
2019-02-16T08:15:24.643Z,47.03
2019-02-16T08:17:44.438Z,46.67
2019-02-16T08:18:36.651Z,46.39
2019-02-16T08:19:29.030Z,45.43
2019-02-16T08:20:21.664Z,44.79
2019-02-16T08:21:14.116Z,44.13
2019-02-16T08:22:06.494Z,43.08
2019-02-16T08:22:59.575Z,43.08
2019-02-16T08:23:53.238Z,42.51
2019-02-16T08:24:45.084Z,42.51
2019-02-16T08:25:39.146Z,42.05
2019-02-16T08:26:32.981Z,41.67
2019-02-16T08:27:28.383Z,41.28
2019-02-16T08:28:21.767Z,41.28
2019-02-16T08:29:15.559Z,41.57
2019-02-16T08:30:07.549Z,41.38
2019-02-16T08:31:00.511Z,41.57
2019-02-16T08:31:54.735Z,41.77
2019-02-16T08:32:48.484Z,42.44
2019-02-16T08:33:40.591Z,42.32
2019-02-16T08:34:33.216Z,42.51
2019-02-16T08:35:29.164Z,43.44
2019-02-16T08:36:26.761Z,44
2019-02-16T08:37:19.304Z,44.86
2019-02-16T08:38:11.731Z,45.43
2019-02-16T08:39:07.265Z,46.17
2019-02-16T08:39:59.498Z,46.17
2019-02-16T08:40:54.177Z,46.92
2019-02-16T08:41:46.598Z,47.97
2019-02-16T08:42:41.143Z,48.42
2019-02-16T08:43:40.572Z,49.09
2019-02-16T08:44:34.457Z,50.12
2019-02-16T08:48:10.115Z,51.64
2019-02-16T08:49:02.194Z,51.54
2019-02-16T08:49:54.757Z,51.48
2019-02-16T08:50:47.260Z,50.81
2019-02-16T08:51:40.056Z,49.62
2019-02-16T08:52:32.411Z,48.02
2019-02-16T08:53:24.763Z,46.48
2019-02-16T08:54:17.821Z,45.65
2019-02-16T08:55:10.385Z,44.43
2019-02-16T08:56:14.923Z,42.99
2019-02-16T08:57:31.250Z,42.99
2019-02-16T09:00:38.768Z,43.92
2019-02-16T09:01:31.861Z,44.5
2019-02-16T09:02:24.968Z,44.02
2019-02-16T09:03:18.604Z,43.85
2019-02-16T09:04:12.510Z,44.13
2019-02-16T09:05:05.320Z,43.85
2019-02-16T09:06:00.361Z,43.01
2019-02-16T09:06:53.257Z,43.1
2019-02-16T09:07:46.568Z,43.01
2019-02-16T09:08:40.259Z,42.7
2019-02-16T09:09:34.103Z,42.51
2019-02-16T09:10:26.735Z,42.9
2019-02-16T09:11:21.881Z,43.18
2019-02-16T09:13:25.894Z,44.76
2019-02-16T09:14:18.294Z,45.53
2019-02-16T09:15:11.817Z,45.53
2019-02-16T09:16:04.625Z,45.98
2019-02-16T09:16:58.947Z,46.56
2019-02-16T09:17:50.848Z,46.48
2019-02-16T09:18:45.747Z,46.1
2019-02-16T09:19:38.419Z,45.07
2019-02-16T09:20:31.252Z,44.33
2019-02-16T09:21:24.311Z,43.66
2019-02-16T09:22:18.366Z,43.1
2019-02-16T09:23:12.976Z,42.34
2019-02-16T09:24:05.433Z,42.82
2019-02-16T09:24:58.252Z,42.91
2019-02-16T09:25:52.023Z,42.53
2019-02-16T09:26:46.347Z,42.72
2019-02-16T09:27:38.802Z,42.72
2019-02-16T09:28:31.424Z,42.74
2019-02-16T09:29:24.840Z,41.52
2019-02-16T09:30:17.862Z,40.75
2019-02-16T09:31:12.100Z,40.47
2019-02-16T09:32:08.481Z,40.17
2019-02-16T09:33:03.537Z,40.94
2019-02-16T09:33:56.980Z,40.84
2019-02-16T09:34:49.431Z,40.66
2019-02-16T09:35:41.976Z,40.27
2019-02-16T09:36:35.021Z,40.66
2019-02-16T09:37:28.799Z,40.66
2019-02-16T09:38:20.906Z,40.58
2019-02-16T09:39:14.187Z,40.08
2019-02-16T09:40:06.855Z,39.91
2019-02-16T09:41:01.227Z,39.72
2019-02-16T09:42:00.269Z,39.72
2019-02-16T09:42:53.175Z,40
2019-02-16T09:43:45.476Z,39.43
2019-02-16T09:44:39.273Z,39.04
2019-02-16T09:45:33.306Z,39.33
2019-02-16T09:46:27.230Z,39.81
2019-02-16T09:47:21.300Z,40.08
2019-02-16T09:48:14.410Z,40.1
2019-02-16T09:49:06.700Z,40.1
2019-02-16T09:49:59.304Z,38.76
2019-02-16T09:50:52.075Z,38.28
2019-02-16T09:51:44.400Z,38.28
2019-02-16T09:52:38.672Z,38.2
2019-02-16T09:53:30.602Z,37.82
2019-02-16T09:54:23.192Z,37.62
2019-02-16T09:55:15.905Z,37.16
2019-02-16T09:56:08.435Z,37.07
2019-02-16T09:57:01.637Z,37.16
2019-02-16T09:57:54.881Z,36.2
2019-02-16T09:58:47.226Z,36.13
2019-02-16T09:59:40.336Z,35.55
2019-02-16T10:00:33.235Z,35.08
2019-02-16T10:01:25.904Z,34.91
2019-02-16T10:02:19.050Z,33.85
2019-02-16T10:03:11.966Z,33.85
2019-02-16T10:04:04.440Z,33.95
2019-02-16T10:04:57.841Z,33.85
2019-02-16T10:05:50.430Z,33.85
2019-02-16T10:06:42.590Z,34.05
2019-02-16T10:07:35.301Z,34.05
2019-02-16T10:08:28.031Z,34.41
2019-02-16T10:09:13.839Z,34.43
2019-02-16T10:09:54.560Z,34.51
2019-02-16T10:10:35.415Z,34.31
2019-02-16T10:11:15.998Z,34.51
2019-02-16T10:11:57.017Z,34.8
2019-02-16T10:13:12.454Z,34.43
2019-02-16T10:16:07.213Z,33.1
2019-02-16T10:16:59.999Z,32.34
2019-02-16T10:17:52.170Z,31.57
2019-02-16T10:18:44.671Z,31.77
2019-02-16T10:19:39.576Z,32.06
2019-02-16T10:20:31.588Z,32.62
2019-02-16T10:21:24.674Z,32.73
2019-02-16T10:22:16.911Z,31.96
2019-02-16T10:23:09.271Z,31.78
2019-02-16T10:24:03.812Z,31.4
2019-02-16T10:24:56.985Z,31.3
2019-02-16T10:25:49.590Z,30.83
2019-02-16T10:26:46.722Z,30.45
2019-02-16T10:27:38.691Z,30.37
2019-02-16T10:28:33.717Z,30.27
2019-02-16T10:29:26.505Z,30.18
2019-02-16T11:06:41.186Z,26.93
2019-02-16T11:07:35.489Z,27.6
2019-02-16T11:08:28.119Z,27.7
2019-02-16T11:09:20.927Z,27.7
2019-02-16T11:10:13.752Z,28.08
2019-02-16T11:11:11.104Z,28.18
2019-02-16T11:12:03.806Z,28.18
2019-02-16T11:12:57.073Z,28.28
2019-02-16T11:13:49.416Z,28.08
2019-02-16T11:14:42.815Z,27.8
2019-02-16T11:15:38.159Z,27.81
2019-02-16T11:16:33.076Z,27.42
2019-02-16T11:17:27.147Z,27.42